PWSweather.com
Personal Weather Stations
Station Observations
BERGSLAGEN
Bergslagen, NoraSE

BergslagenNoraSE

Lat: 59.532278, Lon: 15.016132

Elevation: 492

Station Type: Davis Vantage Pro2 Plus Wireless

http://www.weather.tallasen.se

High Low Average
Temperature 27.3°F-2.6°C 22.8°F-5.1°C 26.0°F-3.3°C
Dew Point 25.1°F-3.8°C 20.6°F-6.3°C 23.7°F-4.6°C
Winds 4.0 mph 6.4 kmh Calm Calm 1.0 mph E1.6 kmh E
Wind Gusts 14.0 mph22.5 kmh -- 5.0 mph8.0 kmh
Humidity 93% 87% 91%
Pressure 29.85 in1010.8 mb 29.46 in997.6 mb -
Precipitation 0.00 in0.0 mm - -
Hour Temp Dew Point Humidity Winds Wind Gusts Pressure Precip Precip Rate Daily Precip Total
12:00 AM 26.2°F-3.2°C 24.5°F-4.2°C 93% Calm Calm 3.0 mph4.8 kmh 29.85 in1010.8 mb 0.00 in0.0 mm 0.00 in0.0 mm 0.00 in0.0 mm
12:15 AM 26.2°F-3.2°C 24.5°F-4.2°C 93% Calm Calm 3.0 mph4.8 kmh 29.85 in1010.8 mb 0.00 in0.0 mm 0.00 in0.0 mm 0.00 in0.0 mm
12:30 AM 26.2°F-3.2°C 24.5°F-4.2°C 93% Calm Calm 4.0 mph6.4 kmh 29.85 in1010.8 mb 0.00 in0.0 mm 0.00 in0.0 mm 0.00 in0.0 mm
12:45 AM 26.2°F-3.2°C 24.5°F-4.2°C 93% Calm Calm 3.0 mph4.8 kmh 29.84 in1010.5 mb 0.00 in0.0 mm 0.00 in0.0 mm 0.00 in0.0 mm
01:00 AM 26.2°F-3.2°C 24.2°F-4.3°C 92% Calm Calm 3.0 mph4.8 kmh 29.84 in1010.5 mb 0.00 in0.0 mm 0.00 in0.0 mm 0.00 in0.0 mm
01:15 AM 26.2°F-3.2°C 24.2°F-4.3°C 92% Calm Calm 3.0 mph4.8 kmh 29.84 in1010.5 mb 0.00 in0.0 mm 0.00 in0.0 mm 0.00 in0.0 mm
01:30 AM 26.2°F-3.2°C 24.2°F-4.3°C 92% Calm Calm 3.0 mph4.8 kmh 29.83 in1010.2 mb 0.00 in0.0 mm 0.00 in0.0 mm 0.00 in0.0 mm
01:45 AM 26.2°F-3.2°C 24.2°F-4.3°C 92% Calm Calm 3.0 mph4.8 kmh 29.83 in1010.2 mb 0.00 in0.0 mm 0.00 in0.0 mm 0.00 in0.0 mm
02:00 AM 26.1°F-3.3°C 24.1°F-4.4°C 92% Calm Calm 4.0 mph6.4 kmh 29.82 in1009.8 mb 0.00 in0.0 mm 0.00 in0.0 mm 0.00 in0.0 mm
02:15 AM 26.1°F-3.3°C 24.1°F-4.4°C 92% Calm Calm 3.0 mph4.8 kmh 29.82 in1009.8 mb 0.00 in0.0 mm 0.00 in0.0 mm 0.00 in0.0 mm
02:30 AM 26.1°F-3.3°C 24.1°F-4.4°C 92% 1.0 mph SE1.6 kmh SE 4.0 mph6.4 kmh 29.82 in1009.8 mb 0.00 in0.0 mm 0.00 in0.0 mm 0.00 in0.0 mm
02:45 AM 26.1°F-3.3°C 24.1°F-4.4°C 92% 1.0 mph SE1.6 kmh SE 4.0 mph6.4 kmh 29.81 in1009.5 mb 0.00 in0.0 mm 0.00 in0.0 mm 0.00 in0.0 mm
03:00 AM 26.1°F-3.3°C 24.1°F-4.4°C 92% 1.0 mph SE1.6 kmh SE 3.0 mph4.8 kmh 29.80 in1009.1 mb 0.00 in0.0 mm 0.00 in0.0 mm 0.00 in0.0 mm
03:15 AM 25.9°F-3.4°C 23.9°F-4.5°C 92% 1.0 mph SE1.6 kmh SE 3.0 mph4.8 kmh 29.80 in1009.1 mb 0.00 in0.0 mm 0.00 in0.0 mm 0.00 in0.0 mm
03:30 AM 25.9°F-3.4°C 23.6°F-4.7°C 91% Calm Calm 4.0 mph6.4 kmh 29.79 in1008.8 mb 0.00 in0.0 mm 0.00 in0.0 mm 0.00 in0.0 mm
03:45 AM 25.7°F-3.5°C 23.4°F-4.8°C 91% Calm Calm 4.0 mph6.4 kmh 29.79 in1008.8 mb 0.00 in0.0 mm 0.00 in0.0 mm 0.00 in0.0 mm
04:00 AM 25.5°F-3.6°C 23.3°F-4.8°C 91% Calm Calm 4.0 mph6.4 kmh 29.78 in1008.5 mb 0.00 in0.0 mm 0.00 in0.0 mm 0.00 in0.0 mm
04:15 AM 25.3°F-3.7°C 23.1°F-4.9°C 91% Calm Calm 2.0 mph3.2 kmh 29.77 in1008.1 mb 0.00 in0.0 mm 0.00 in0.0 mm 0.00 in0.0 mm
04:30 AM 25.0°F-3.9°C 22.7°F-5.2°C 91% Calm Calm -- 29.77 in1008.1 mb 0.00 in0.0 mm 0.00 in0.0 mm 0.00 in0.0 mm
04:45 AM 24.3°F-4.3°C 22.0°F-5.6°C 91% Calm Calm -- 29.77 in1008.1 mb 0.00 in0.0 mm 0.00 in0.0 mm 0.00 in0.0 mm
05:00 AM 23.7°F-4.6°C 21.5°F-5.8°C 91% Calm Calm 2.0 mph3.2 kmh 29.77 in1008.1 mb 0.00 in0.0 mm 0.00 in0.0 mm 0.00 in0.0 mm
05:15 AM 24.3°F-4.3°C 22.0°F-5.6°C 91% Calm Calm 1.0 mph1.6 kmh 29.77 in1008.1 mb 0.00 in0.0 mm 0.00 in0.0 mm 0.00 in0.0 mm
05:30 AM 24.4°F-4.2°C 22.2°F-5.4°C 91% Calm Calm -- 29.77 in1008.1 mb 0.00 in0.0 mm 0.00 in0.0 mm 0.00 in0.0 mm
05:45 AM 24.4°F-4.2°C 22.2°F-5.4°C 91% Calm Calm -- 29.77 in1008.1 mb 0.00 in0.0 mm 0.00 in0.0 mm 0.00 in0.0 mm
06:00 AM 24.4°F-4.2°C 22.2°F-5.4°C 91% Calm Calm 1.0 mph1.6 kmh 29.76 in1007.8 mb 0.00 in0.0 mm 0.00 in0.0 mm 0.00 in0.0 mm
06:15 AM 24.1°F-4.4°C 21.8°F-5.7°C 91% Calm Calm 1.0 mph1.6 kmh 29.76 in1007.8 mb 0.00 in0.0 mm 0.00 in0.0 mm 0.00 in0.0 mm
06:30 AM 23.5°F-4.7°C 21.3°F-5.9°C 91% Calm Calm 1.0 mph1.6 kmh 29.76 in1007.8 mb 0.00 in0.0 mm 0.00 in0.0 mm 0.00 in0.0 mm
06:45 AM 23.2°F-4.9°C 20.9°F-6.2°C 91% Calm Calm -- 29.75 in1007.5 mb 0.00 in0.0 mm 0.00 in0.0 mm 0.00 in0.0 mm
07:00 AM 22.8°F-5.1°C 20.6°F-6.3°C 91% Calm Calm -- 29.75 in1007.5 mb 0.00 in0.0 mm 0.00 in0.0 mm 0.00 in0.0 mm
07:15 AM 22.8°F-5.1°C 20.6°F-6.3°C 91% Calm Calm 1.0 mph1.6 kmh 29.74 in1007.1 mb 0.00 in0.0 mm 0.00 in0.0 mm 0.00 in0.0 mm
07:30 AM 23.2°F-4.9°C 21.2°F-6.0°C 92% Calm Calm -- 29.74 in1007.1 mb 0.00 in0.0 mm 0.00 in0.0 mm 0.00 in0.0 mm
07:45 AM 24.1°F-4.4°C 22.1°F-5.5°C 92% Calm Calm 1.0 mph1.6 kmh 29.74 in1007.1 mb 0.00 in0.0 mm 0.00 in0.0 mm 0.00 in0.0 mm
08:00 AM 24.1°F-4.4°C 22.1°F-5.5°C 92% Calm Calm 1.0 mph1.6 kmh 29.73 in1006.8 mb 0.00 in0.0 mm 0.00 in0.0 mm 0.00 in0.0 mm
08:15 AM 24.4°F-4.2°C 22.5°F-5.3°C 92% Calm Calm 2.0 mph3.2 kmh 29.73 in1006.8 mb 0.00 in0.0 mm 0.00 in0.0 mm 0.00 in0.0 mm
08:30 AM 24.6°F-4.1°C 22.6°F-5.2°C 92% Calm Calm 1.0 mph1.6 kmh 29.72 in1006.4 mb 0.00 in0.0 mm 0.00 in0.0 mm 0.00 in0.0 mm
08:45 AM 25.0°F-3.9°C 23.0°F-5.0°C 92% Calm Calm 2.0 mph3.2 kmh 29.72 in1006.4 mb 0.00 in0.0 mm 0.00 in0.0 mm 0.00 in0.0 mm
09:00 AM 25.0°F-3.9°C 23.0°F-5.0°C 92% Calm Calm 1.0 mph1.6 kmh 29.72 in1006.4 mb 0.00 in0.0 mm 0.00 in0.0 mm 0.00 in0.0 mm
09:15 AM 25.3°F-3.7°C 23.3°F-4.8°C 92% Calm Calm 3.0 mph4.8 kmh 29.72 in1006.4 mb 0.00 in0.0 mm 0.00 in0.0 mm 0.00 in0.0 mm
09:30 AM 25.5°F-3.6°C 23.3°F-4.8°C 91% Calm Calm 3.0 mph4.8 kmh 29.72 in1006.4 mb 0.00 in0.0 mm 0.00 in0.0 mm 0.00 in0.0 mm
09:45 AM 25.7°F-3.5°C 23.4°F-4.8°C 91% Calm Calm 3.0 mph4.8 kmh 29.71 in1006.1 mb 0.00 in0.0 mm 0.00 in0.0 mm 0.00 in0.0 mm
10:00 AM 25.9°F-3.4°C 23.6°F-4.7°C 91% 1.0 mph SE1.6 kmh SE 4.0 mph6.4 kmh 29.71 in1006.1 mb 0.00 in0.0 mm 0.00 in0.0 mm 0.00 in0.0 mm
10:15 AM 26.1°F-3.3°C 23.5°F-4.7°C 90% 1.0 mph SSE1.6 kmh SSE 6.0 mph9.7 kmh 29.71 in1006.1 mb 0.00 in0.0 mm 0.00 in0.0 mm 0.00 in0.0 mm
10:30 AM 26.1°F-3.3°C 23.5°F-4.7°C 90% Calm Calm 3.0 mph4.8 kmh 29.71 in1006.1 mb 0.00 in0.0 mm 0.00 in0.0 mm 0.00 in0.0 mm
10:45 AM 26.2°F-3.2°C 23.7°F-4.6°C 90% 1.0 mph SE1.6 kmh SE 3.0 mph4.8 kmh 29.70 in1005.8 mb 0.00 in0.0 mm 0.00 in0.0 mm 0.00 in0.0 mm
11:00 AM 26.2°F-3.2°C 23.7°F-4.6°C 90% Calm Calm 3.0 mph4.8 kmh 29.69 in1005.4 mb 0.00 in0.0 mm 0.00 in0.0 mm 0.00 in0.0 mm
11:15 AM 26.4°F-3.1°C 23.9°F-4.5°C 90% Calm Calm 4.0 mph6.4 kmh 29.69 in1005.4 mb 0.00 in0.0 mm 0.00 in0.0 mm 0.00 in0.0 mm
11:30 AM 26.4°F-3.1°C 23.9°F-4.5°C 90% Calm Calm 4.0 mph6.4 kmh 29.69 in1005.4 mb 0.00 in0.0 mm 0.00 in0.0 mm 0.00 in0.0 mm
11:45 AM 26.6°F-3.0°C 24.1°F-4.4°C 90% 1.0 mph SE1.6 kmh SE 4.0 mph6.4 kmh 29.68 in1005.1 mb 0.00 in0.0 mm 0.00 in0.0 mm 0.00 in0.0 mm
12:00 PM 26.6°F-3.0°C 24.1°F-4.4°C 90% 1.0 mph SSE1.6 kmh SSE 5.0 mph8.0 kmh 29.68 in1005.1 mb 0.00 in0.0 mm 0.00 in0.0 mm 0.00 in0.0 mm
12:15 PM 26.8°F-2.9°C 24.5°F-4.2°C 91% 1.0 mph SSE1.6 kmh SSE 6.0 mph9.7 kmh 29.68 in1005.1 mb 0.00 in0.0 mm 0.00 in0.0 mm 0.00 in0.0 mm
12:30 PM 26.8°F-2.9°C 24.5°F-4.2°C 91% Calm Calm 4.0 mph6.4 kmh 29.67 in1004.7 mb 0.00 in0.0 mm 0.00 in0.0 mm 0.00 in0.0 mm
12:45 PM 26.8°F-2.9°C 24.5°F-4.2°C 91% 1.0 mph S1.6 kmh S 4.0 mph6.4 kmh 29.66 in1004.4 mb 0.00 in0.0 mm 0.00 in0.0 mm 0.00 in0.0 mm
01:00 PM 26.8°F-2.9°C 24.8°F-4.0°C 92% Calm Calm 4.0 mph6.4 kmh 29.66 in1004.4 mb 0.00 in0.0 mm 0.00 in0.0 mm 0.00 in0.0 mm
01:15 PM 27.0°F-2.8°C 24.9°F-3.9°C 92% 1.0 mph SSE1.6 kmh SSE 3.0 mph4.8 kmh 29.65 in1004.1 mb 0.00 in0.0 mm 0.00 in0.0 mm 0.00 in0.0 mm
01:30 PM 27.0°F-2.8°C 24.9°F-3.9°C 92% 1.0 mph SE1.6 kmh SE 3.0 mph4.8 kmh 29.64 in1003.7 mb 0.00 in0.0 mm 0.00 in0.0 mm 0.00 in0.0 mm
01:45 PM 27.0°F-2.8°C 24.9°F-3.9°C 92% 1.0 mph SSE1.6 kmh SSE 5.0 mph8.0 kmh 29.63 in1003.4 mb 0.00 in0.0 mm 0.00 in0.0 mm 0.00 in0.0 mm
02:00 PM 27.1°F-2.7°C 25.1°F-3.8°C 92% 1.0 mph SE1.6 kmh SE 4.0 mph6.4 kmh 29.63 in1003.4 mb 0.00 in0.0 mm 0.00 in0.0 mm 0.00 in0.0 mm
02:15 PM 27.1°F-2.7°C 25.1°F-3.8°C 92% 1.0 mph SSE1.6 kmh SSE 7.0 mph11.3 kmh 29.62 in1003.0 mb 0.00 in0.0 mm 0.00 in0.0 mm 0.00 in0.0 mm
02:30 PM 27.1°F-2.7°C 24.9°F-3.9°C 91% 1.0 mph SE1.6 kmh SE 6.0 mph9.7 kmh 29.61 in1002.7 mb 0.00 in0.0 mm 0.00 in0.0 mm 0.00 in0.0 mm
02:45 PM 27.1°F-2.7°C 24.6°F-4.1°C 90% 1.0 mph SSE1.6 kmh SSE 4.0 mph6.4 kmh 29.61 in1002.7 mb 0.00 in0.0 mm 0.00 in0.0 mm 0.00 in0.0 mm
03:00 PM 27.1°F-2.7°C 24.6°F-4.1°C 90% 1.0 mph SE1.6 kmh SE 12.0 mph19.3 kmh 29.61 in1002.7 mb 0.00 in0.0 mm 0.00 in0.0 mm 0.00 in0.0 mm
03:15 PM 27.3°F-2.6°C 24.5°F-4.2°C 89% 2.0 mph SSE3.2 kmh SSE 10.0 mph16.1 kmh 29.60 in1002.4 mb 0.00 in0.0 mm 0.00 in0.0 mm 0.00 in0.0 mm
03:30 PM 27.3°F-2.6°C 24.5°F-4.2°C 89% 2.0 mph SSE3.2 kmh SSE 7.0 mph11.3 kmh 29.60 in1002.4 mb 0.00 in0.0 mm 0.00 in0.0 mm 0.00 in0.0 mm
03:45 PM 27.1°F-2.7°C 24.3°F-4.3°C 89% 2.0 mph SE3.2 kmh SE 6.0 mph9.7 kmh 29.60 in1002.4 mb 0.00 in0.0 mm 0.00 in0.0 mm 0.00 in0.0 mm
04:00 PM 27.1°F-2.7°C 24.3°F-4.3°C 89% 3.0 mph S4.8 kmh S 10.0 mph16.1 kmh 29.59 in1002.0 mb 0.00 in0.0 mm 0.00 in0.0 mm 0.00 in0.0 mm
04:15 PM 27.1°F-2.7°C 24.1°F-4.4°C 88% 2.0 mph S3.2 kmh S 6.0 mph9.7 kmh 29.58 in1001.7 mb 0.00 in0.0 mm 0.00 in0.0 mm 0.00 in0.0 mm
04:30 PM 27.1°F-2.7°C 24.1°F-4.4°C 88% 2.0 mph S3.2 kmh S 6.0 mph9.7 kmh 29.58 in1001.7 mb 0.00 in0.0 mm 0.00 in0.0 mm 0.00 in0.0 mm
04:45 PM 27.1°F-2.7°C 23.8°F-4.6°C 87% 2.0 mph SSE3.2 kmh SSE 6.0 mph9.7 kmh 29.58 in1001.7 mb 0.00 in0.0 mm 0.00 in0.0 mm 0.00 in0.0 mm
05:00 PM 27.0°F-2.8°C 23.6°F-4.7°C 87% 2.0 mph SSE3.2 kmh SSE 9.0 mph14.5 kmh 29.57 in1001.4 mb 0.00 in0.0 mm 0.00 in0.0 mm 0.00 in0.0 mm
05:15 PM 26.8°F-2.9°C 23.7°F-4.6°C 88% 1.0 mph SSE1.6 kmh SSE 9.0 mph14.5 kmh 29.57 in1001.4 mb 0.00 in0.0 mm 0.00 in0.0 mm 0.00 in0.0 mm
05:30 PM 26.6°F-3.0°C 23.5°F-4.7°C 88% 2.0 mph S3.2 kmh S 7.0 mph11.3 kmh 29.56 in1001.0 mb 0.00 in0.0 mm 0.00 in0.0 mm 0.00 in0.0 mm
05:45 PM 26.6°F-3.0°C 23.5°F-4.7°C 88% 2.0 mph S3.2 kmh S 7.0 mph11.3 kmh 29.56 in1001.0 mb 0.00 in0.0 mm 0.00 in0.0 mm 0.00 in0.0 mm
06:00 PM 26.6°F-3.0°C 23.5°F-4.7°C 88% 2.0 mph SW3.2 kmh SW 6.0 mph9.7 kmh 29.55 in1000.7 mb 0.00 in0.0 mm 0.00 in0.0 mm 0.00 in0.0 mm
06:15 PM 26.6°F-3.0°C 23.5°F-4.7°C 88% 2.0 mph S3.2 kmh S 9.0 mph14.5 kmh 29.55 in1000.7 mb 0.00 in0.0 mm 0.00 in0.0 mm 0.00 in0.0 mm
06:30 PM 26.6°F-3.0°C 23.8°F-4.6°C 89% 3.0 mph SSE4.8 kmh SSE 7.0 mph11.3 kmh 29.55 in1000.7 mb 0.00 in0.0 mm 0.00 in0.0 mm 0.00 in0.0 mm
06:45 PM 26.6°F-3.0°C 23.8°F-4.6°C 89% 2.0 mph SE3.2 kmh SE 10.0 mph16.1 kmh 29.54 in1000.3 mb 0.00 in0.0 mm 0.00 in0.0 mm 0.00 in0.0 mm
07:00 PM 26.6°F-3.0°C 23.8°F-4.6°C 89% 3.0 mph SSE4.8 kmh SSE 9.0 mph14.5 kmh 29.54 in1000.3 mb 0.00 in0.0 mm 0.00 in0.0 mm 0.00 in0.0 mm
07:15 PM 26.6°F-3.0°C 23.8°F-4.6°C 89% 2.0 mph ESE3.2 kmh ESE 11.0 mph17.7 kmh 29.53 in1000.0 mb 0.00 in0.0 mm 0.00 in0.0 mm 0.00 in0.0 mm
07:30 PM 26.6°F-3.0°C 24.1°F-4.4°C 90% 3.0 mph SSE4.8 kmh SSE 10.0 mph16.1 kmh 29.53 in1000.0 mb 0.00 in0.0 mm 0.00 in0.0 mm 0.00 in0.0 mm
07:45 PM 26.6°F-3.0°C 24.1°F-4.4°C 90% 2.0 mph SSE3.2 kmh SSE 8.0 mph12.9 kmh 29.53 in1000.0 mb 0.00 in0.0 mm 0.00 in0.0 mm 0.00 in0.0 mm
08:00 PM 26.6°F-3.0°C 24.1°F-4.4°C 90% 3.0 mph S4.8 kmh S 10.0 mph16.1 kmh 29.52 in999.7 mb 0.00 in0.0 mm 0.00 in0.0 mm 0.00 in0.0 mm
08:15 PM 26.6°F-3.0°C 24.1°F-4.4°C 90% 3.0 mph SSE4.8 kmh SSE 10.0 mph16.1 kmh 29.52 in999.7 mb 0.00 in0.0 mm 0.00 in0.0 mm 0.00 in0.0 mm
08:30 PM 26.6°F-3.0°C 24.3°F-4.3°C 91% 2.0 mph SSE3.2 kmh SSE 7.0 mph11.3 kmh 29.52 in999.7 mb 0.00 in0.0 mm 0.00 in0.0 mm 0.00 in0.0 mm
08:45 PM 26.4°F-3.1°C 24.1°F-4.4°C 91% 3.0 mph SSE4.8 kmh SSE 9.0 mph14.5 kmh 29.51 in999.3 mb 0.00 in0.0 mm 0.00 in0.0 mm 0.00 in0.0 mm
09:00 PM 26.4°F-3.1°C 24.1°F-4.4°C 91% 3.0 mph SSE4.8 kmh SSE 10.0 mph16.1 kmh 29.51 in999.3 mb 0.00 in0.0 mm 0.00 in0.0 mm 0.00 in0.0 mm
09:15 PM 26.4°F-3.1°C 24.1°F-4.4°C 91% 2.0 mph SSE3.2 kmh SSE 9.0 mph14.5 kmh 29.51 in999.3 mb 0.00 in0.0 mm 0.00 in0.0 mm 0.00 in0.0 mm
09:30 PM 26.6°F-3.0°C 24.6°F-4.1°C 92% 2.0 mph S3.2 kmh S 7.0 mph11.3 kmh 29.51 in999.3 mb 0.00 in0.0 mm 0.00 in0.0 mm 0.00 in0.0 mm
09:45 PM 26.6°F-3.0°C 24.3°F-4.3°C 91% 1.0 mph S1.6 kmh S 6.0 mph9.7 kmh 29.50 in999.0 mb 0.00 in0.0 mm 0.00 in0.0 mm 0.00 in0.0 mm
10:00 PM 26.6°F-3.0°C 24.3°F-4.3°C 91% 2.0 mph SE3.2 kmh SE 6.0 mph9.7 kmh 29.50 in999.0 mb 0.00 in0.0 mm 0.00 in0.0 mm 0.00 in0.0 mm
10:15 PM 26.6°F-3.0°C 24.3°F-4.3°C 91% 2.0 mph SSW3.2 kmh SSW 7.0 mph11.3 kmh 29.50 in999.0 mb 0.00 in0.0 mm 0.00 in0.0 mm 0.00 in0.0 mm
10:30 PM 26.6°F-3.0°C 24.3°F-4.3°C 91% 2.0 mph E3.2 kmh E 9.0 mph14.5 kmh 29.49 in998.6 mb 0.00 in0.0 mm 0.00 in0.0 mm 0.00 in0.0 mm
10:45 PM 26.6°F-3.0°C 24.3°F-4.3°C 91% 2.0 mph SSE3.2 kmh SSE 14.0 mph22.5 kmh 29.48 in998.3 mb 0.00 in0.0 mm 0.00 in0.0 mm 0.00 in0.0 mm
11:00 PM 26.4°F-3.1°C 24.4°F-4.2°C 92% 2.0 mph S3.2 kmh S 5.0 mph8.0 kmh 29.48 in998.3 mb 0.00 in0.0 mm 0.00 in0.0 mm 0.00 in0.0 mm
11:15 PM 26.4°F-3.1°C 24.4°F-4.2°C 92% 2.0 mph SSW3.2 kmh SSW 7.0 mph11.3 kmh 29.47 in998.0 mb 0.00 in0.0 mm 0.00 in0.0 mm 0.00 in0.0 mm
11:30 PM 26.4°F-3.1°C 24.4°F-4.2°C 92% 3.0 mph S4.8 kmh S 10.0 mph16.1 kmh 29.46 in997.6 mb 0.00 in0.0 mm 0.00 in0.0 mm 0.00 in0.0 mm
11:45 PM 26.4°F-3.1°C 24.4°F-4.2°C 92% 4.0 mph S6.4 kmh S 11.0 mph17.7 kmh 29.46 in997.6 mb 0.00 in0.0 mm 0.00 in0.0 mm 0.00 in0.0 mm